sensor_id;sensor_type;location;lat;lon;timestamp;temperature;humidity
15705;DHT22;7952;48.396;12.806;2023-07-02T00:01:35;22.00;47.90
15705;DHT22;7952;48.396;12.806;2023-07-02T00:04:01;21.90;48.00
15705;DHT22;7952;48.396;12.806;2023-07-02T00:06:27;21.90;48.20
15705;DHT22;7952;48.396;12.806;2023-07-02T00:08:53;21.80;48.20
15705;DHT22;7952;48.396;12.806;2023-07-02T00:11:18;21.70;48.40
15705;DHT22;7952;48.396;12.806;2023-07-02T00:13:44;21.60;48.40
15705;DHT22;7952;48.396;12.806;2023-07-02T00:16:10;21.50;48.50
15705;DHT22;7952;48.396;12.806;2023-07-02T00:18:35;21.40;48.60
15705;DHT22;7952;48.396;12.806;2023-07-02T00:21:01;21.30;48.70
15705;DHT22;7952;48.396;12.806;2023-07-02T00:23:30;21.30;48.90
15705;DHT22;7952;48.396;12.806;2023-07-02T00:25:59;21.20;48.90
15705;DHT22;7952;48.396;12.806;2023-07-02T00:28:24;21.10;49.00
15705;DHT22;7952;48.396;12.806;2023-07-02T00:30:50;21.00;49.00
15705;DHT22;7952;48.396;12.806;2023-07-02T00:33:16;21.00;49.20
15705;DHT22;7952;48.396;12.806;2023-07-02T00:35:42;21.00;49.30
15705;DHT22;7952;48.396;12.806;2023-07-02T00:38:07;20.90;49.20
15705;DHT22;7952;48.396;12.806;2023-07-02T00:40:39;20.80;49.20
15705;DHT22;7952;48.396;12.806;2023-07-02T00:43:05;20.80;49.30
15705;DHT22;7952;48.396;12.806;2023-07-02T00:45:31;20.80;49.30
15705;DHT22;7952;48.396;12.806;2023-07-02T00:47:56;20.80;49.40
15705;DHT22;7952;48.396;12.806;2023-07-02T00:50:25;20.70;49.40
15705;DHT22;7952;48.396;12.806;2023-07-02T00:52:51;20.70;49.50
15705;DHT22;7952;48.396;12.806;2023-07-02T00:55:19;20.70;49.60
15705;DHT22;7952;48.396;12.806;2023-07-02T00:57:46;20.60;49.50
15705;DHT22;7952;48.396;12.806;2023-07-02T01:00:13;20.60;49.60
15705;DHT22;7952;48.396;12.806;2023-07-02T01:02:39;20.60;49.60
15705;DHT22;7952;48.396;12.806;2023-07-02T01:05:18;20.60;49.70
15705;DHT22;7952;48.396;12.806;2023-07-02T01:07:47;20.60;49.70
15705;DHT22;7952;48.396;12.806;2023-07-02T01:10:12;20.60;49.80
15705;DHT22;7952;48.396;12.806;2023-07-02T01:12:38;20.50;49.80
15705;DHT22;7952;48.396;12.806;2023-07-02T01:15:05;20.50;49.80
15705;DHT22;7952;48.396;12.806;2023-07-02T01:17:32;20.50;49.80
15705;DHT22;7952;48.396;12.806;2023-07-02T01:20:08;20.50;49.90
15705;DHT22;7952;48.396;12.806;2023-07-02T01:22:35;20.50;49.90
15705;DHT22;7952;48.396;12.806;2023-07-02T01:25:01;20.50;49.90
15705;DHT22;7952;48.396;12.806;2023-07-02T01:27:30;20.50;49.90
15705;DHT22;7952;48.396;12.806;2023-07-02T01:29:56;20.50;49.90
15705;DHT22;7952;48.396;12.806;2023-07-02T01:32:22;20.50;50.00
15705;DHT22;7952;48.396;12.806;2023-07-02T01:34:49;20.50;50.00
15705;DHT22;7952;48.396;12.806;2023-07-02T01:37:18;20.50;50.10
15705;DHT22;7952;48.396;12.806;2023-07-02T01:39:44;20.50;50.10
15705;DHT22;7952;48.396;12.806;2023-07-02T01:42:18;20.40;50.00
15705;DHT22;7952;48.396;12.806;2023-07-02T01:44:46;20.40;50.10
15705;DHT22;7952;48.396;12.806;2023-07-02T01:47:13;20.50;50.20
15705;DHT22;7952;48.396;12.806;2023-07-02T01:49:39;20.40;50.10
15705;DHT22;7952;48.396;12.806;2023-07-02T01:52:06;20.40;50.10
15705;DHT22;7952;48.396;12.806;2023-07-02T01:54:32;20.40;50.10
15705;DHT22;7952;48.396;12.806;2023-07-02T01:56:59;20.40;50.20
15705;DHT22;7952;48.396;12.806;2023-07-02T01:59:25;20.40;50.20
15705;DHT22;7952;48.396;12.806;2023-07-02T02:01:51;20.40;50.20
15705;DHT22;7952;48.396;12.806;2023-07-02T02:04:17;20.40;50.20
15705;DHT22;7952;48.396;12.806;2023-07-02T02:06:43;20.30;50.20
15705;DHT22;7952;48.396;12.806;2023-07-02T02:09:09;20.30;50.30
15705;DHT22;7952;48.396;12.806;2023-07-02T02:11:39;20.30;50.30
15705;DHT22;7952;48.396;12.806;2023-07-02T02:14:05;20.40;50.40
15705;DHT22;7952;48.396;12.806;2023-07-02T02:16:31;20.30;50.30
15705;DHT22;7952;48.396;12.806;2023-07-02T02:18:59;20.30;50.40
15705;DHT22;7952;48.396;12.806;2023-07-02T02:21:25;20.40;50.50
15705;DHT22;7952;48.396;12.806;2023-07-02T02:23:51;20.30;50.40
15705;DHT22;7952;48.396;12.806;2023-07-02T02:26:17;20.30;50.40
15705;DHT22;7952;48.396;12.806;2023-07-02T02:28:43;20.30;50.40
15705;DHT22;7952;48.396;12.806;2023-07-02T02:31:09;20.30;50.40
15705;DHT22;7952;48.396;12.806;2023-07-02T02:33:35;20.30;50.40
15705;DHT22;7952;48.396;12.806;2023-07-02T02:36:02;20.30;50.40
15705;DHT22;7952;48.396;12.806;2023-07-02T02:38:27;20.30;50.50
15705;DHT22;7952;48.396;12.806;2023-07-02T02:40:53;20.30;50.50
15705;DHT22;7952;48.396;12.806;2023-07-02T02:43:19;20.30;50.50
15705;DHT22;7952;48.396;12.806;2023-07-02T02:45:46;20.30;50.50
15705;DHT22;7952;48.396;12.806;2023-07-02T02:48:12;20.30;50.60
15705;DHT22;7952;48.396;12.806;2023-07-02T02:50:38;20.30;50.60
15705;DHT22;7952;48.396;12.806;2023-07-02T02:53:07;20.30;50.60
15705;DHT22;7952;48.396;12.806;2023-07-02T02:55:33;20.30;50.60
15705;DHT22;7952;48.396;12.806;2023-07-02T02:57:59;20.30;50.70
15705;DHT22;7952;48.396;12.806;2023-07-02T03:00:25;20.30;50.70
15705;DHT22;7952;48.396;12.806;2023-07-02T03:02:50;20.30;50.80
15705;DHT22;7952;48.396;12.806;2023-07-02T03:05:16;20.20;50.70
15705;DHT22;7952;48.396;12.806;2023-07-02T03:07:42;20.20;50.80
15705;DHT22;7952;48.396;12.806;2023-07-02T03:10:08;20.20;51.00
15705;DHT22;7952;48.396;12.806;2023-07-02T03:12:34;20.20;50.90
15705;DHT22;7952;48.396;12.806;2023-07-02T03:15:03;20.20;50.90
15705;DHT22;7952;48.396;12.806;2023-07-02T03:17:29;20.10;50.90
15705;DHT22;7952;48.396;12.806;2023-07-02T03:19:55;20.10;51.00
15705;DHT22;7952;48.396;12.806;2023-07-02T03:22:21;20.00;51.00
15705;DHT22;7952;48.396;12.806;2023-07-02T03:24:47;20.00;51.00
15705;DHT22;7952;48.396;12.806;2023-07-02T03:27:12;20.00;51.10
15705;DHT22;7952;48.396;12.806;2023-07-02T03:29:38;20.00;51.20
15705;DHT22;7952;48.396;12.806;2023-07-02T03:32:04;19.90;51.10
15705;DHT22;7952;48.396;12.806;2023-07-02T03:34:30;19.90;51.20
15705;DHT22;7952;48.396;12.806;2023-07-02T03:36:56;19.90;51.20
15705;DHT22;7952;48.396;12.806;2023-07-02T03:39:22;19.90;51.30
15705;DHT22;7952;48.396;12.806;2023-07-02T03:41:48;20.00;52.00
15705;DHT22;7952;48.396;12.806;2023-07-02T03:44:14;19.90;51.30
15705;DHT22;7952;48.396;12.806;2023-07-02T03:46:39;20.00;51.40
15705;DHT22;7952;48.396;12.806;2023-07-02T03:49:05;20.00;51.30
15705;DHT22;7952;48.396;12.806;2023-07-02T03:51:31;20.10;51.40
15705;DHT22;7952;48.396;12.806;2023-07-02T03:54:01;20.10;51.30
15705;DHT22;7952;48.396;12.806;2023-07-02T03:56:27;20.20;51.30
15705;DHT22;7952;48.396;12.806;2023-07-02T03:58:53;20.20;51.30
15705;DHT22;7952;48.396;12.806;2023-07-02T04:01:19;20.20;51.30
15705;DHT22;7952;48.396;12.806;2023-07-02T04:03:52;20.30;51.30
15705;DHT22;7952;48.396;12.806;2023-07-02T04:06:18;20.30;51.30
15705;DHT22;7952;48.396;12.806;2023-07-02T04:08:44;20.30;51.30
15705;DHT22;7952;48.396;12.806;2023-07-02T04:11:11;20.30;51.20
15705;DHT22;7952;48.396;12.806;2023-07-02T04:13:37;20.30;51.30
15705;DHT22;7952;48.396;12.806;2023-07-02T04:16:03;20.30;51.30
15705;DHT22;7952;48.396;12.806;2023-07-02T04:18:29;20.30;51.40
15705;DHT22;7952;48.396;12.806;2023-07-02T04:20:56;20.30;51.40
15705;DHT22;7952;48.396;12.806;2023-07-02T04:23:21;20.20;51.40
15705;DHT22;7952;48.396;12.806;2023-07-02T04:25:47;20.20;51.40
15705;DHT22;7952;48.396;12.806;2023-07-02T04:28:13;20.20;51.50
15705;DHT22;7952;48.396;12.806;2023-07-02T04:30:39;20.20;51.50
15705;DHT22;7952;48.396;12.806;2023-07-02T04:33:05;20.20;51.60
15705;DHT22;7952;48.396;12.806;2023-07-02T04:35:31;20.20;51.60
15705;DHT22;7952;48.396;12.806;2023-07-02T04:37:57;20.20;51.60
15705;DHT22;7952;48.396;12.806;2023-07-02T04:40:24;20.20;51.70
15705;DHT22;7952;48.396;12.806;2023-07-02T04:42:50;20.20;51.70
15705;DHT22;7952;48.396;12.806;2023-07-02T04:45:24;20.20;51.70
15705;DHT22;7952;48.396;12.806;2023-07-02T04:47:50;20.20;51.70
15705;DHT22;7952;48.396;12.806;2023-07-02T04:50:19;20.20;51.70
15705;DHT22;7952;48.396;12.806;2023-07-02T04:52:45;20.20;51.70
15705;DHT22;7952;48.396;12.806;2023-07-02T04:55:11;20.30;51.80
15705;DHT22;7952;48.396;12.806;2023-07-02T04:57:40;20.30;52.40
15705;DHT22;7952;48.396;12.806;2023-07-02T05:00:06;20.30;51.90
15705;DHT22;7952;48.396;12.806;2023-07-02T05:02:34;20.30;51.80
15705;DHT22;7952;48.396;12.806;2023-07-02T05:05:03;20.30;51.80
15705;DHT22;7952;48.396;12.806;2023-07-02T05:07:28;20.40;51.90
15705;DHT22;7952;48.396;12.806;2023-07-02T05:09:54;20.40;51.90
15705;DHT22;7952;48.396;12.806;2023-07-02T05:12:20;20.40;51.90
15705;DHT22;7952;48.396;12.806;2023-07-02T05:14:46;20.40;51.90
15705;DHT22;7952;48.396;12.806;2023-07-02T05:17:12;20.40;51.90
15705;DHT22;7952;48.396;12.806;2023-07-02T05:19:40;20.40;51.90
15705;DHT22;7952;48.396;12.806;2023-07-02T05:22:06;20.40;51.90
15705;DHT22;7952;48.396;12.806;2023-07-02T05:24:32;20.40;52.00
15705;DHT22;7952;48.396;12.806;2023-07-02T05:26:58;20.30;51.90
15705;DHT22;7952;48.396;12.806;2023-07-02T05:29:24;20.30;52.00
15705;DHT22;7952;48.396;12.806;2023-07-02T05:31:50;20.30;52.00
15705;DHT22;7952;48.396;12.806;2023-07-02T05:34:15;20.30;52.00
15705;DHT22;7952;48.396;12.806;2023-07-02T05:36:41;20.40;52.10
15705;DHT22;7952;48.396;12.806;2023-07-02T05:39:07;20.40;52.10
15705;DHT22;7952;48.396;12.806;2023-07-02T05:41:33;20.50;52.10
15705;DHT22;7952;48.396;12.806;2023-07-02T05:44:00;20.60;52.10
15705;DHT22;7952;48.396;12.806;2023-07-02T05:46:26;20.60;52.00
15705;DHT22;7952;48.396;12.806;2023-07-02T05:48:52;20.70;52.10
15705;DHT22;7952;48.396;12.806;2023-07-02T05:51:21;20.70;52.00
15705;DHT22;7952;48.396;12.806;2023-07-02T05:53:47;20.70;51.90
15705;DHT22;7952;48.396;12.806;2023-07-02T05:56:13;20.80;52.00
15705;DHT22;7952;48.396;12.806;2023-07-02T05:58:39;20.70;51.90
15705;DHT22;7952;48.396;12.806;2023-07-02T06:01:05;20.80;52.00
15705;DHT22;7952;48.396;12.806;2023-07-02T06:03:31;20.80;51.90
15705;DHT22;7952;48.396;12.806;2023-07-02T06:05:57;20.90;52.00
15705;DHT22;7952;48.396;12.806;2023-07-02T06:08:23;20.90;52.00
15705;DHT22;7952;48.396;12.806;2023-07-02T06:10:49;21.10;52.40
15705;DHT22;7952;48.396;12.806;2023-07-02T06:13:16;21.30;52.40
15705;DHT22;7952;48.396;12.806;2023-07-02T06:15:45;21.40;52.30
15705;DHT22;7952;48.396;12.806;2023-07-02T06:18:12;21.70;52.30
15705;DHT22;7952;48.396;12.806;2023-07-02T06:20:38;22.10;52.30
15705;DHT22;7952;48.396;12.806;2023-07-02T06:23:04;22.50;52.00
15705;DHT22;7952;48.396;12.806;2023-07-02T06:25:29;22.80;51.70
15705;DHT22;7952;48.396;12.806;2023-07-02T06:27:55;23.00;51.40
15705;DHT22;7952;48.396;12.806;2023-07-02T06:30:24;23.10;51.40
15705;DHT22;7952;48.396;12.806;2023-07-02T06:32:49;23.10;51.20
15705;DHT22;7952;48.396;12.806;2023-07-02T06:35:15;23.10;51.10
15705;DHT22;7952;48.396;12.806;2023-07-02T06:37:41;23.10;51.10
15705;DHT22;7952;48.396;12.806;2023-07-02T06:40:07;23.00;51.10
15705;DHT22;7952;48.396;12.806;2023-07-02T06:42:36;23.00;51.20
15705;DHT22;7952;48.396;12.806;2023-07-02T06:45:03;22.90;51.30
15705;DHT22;7952;48.396;12.806;2023-07-02T06:47:29;22.80;51.90
15705;DHT22;7952;48.396;12.806;2023-07-02T06:49:55;22.80;51.40
15705;DHT22;7952;48.396;12.806;2023-07-02T06:52:20;22.80;51.50
15705;DHT22;7952;48.396;12.806;2023-07-02T06:54:46;22.80;51.70
15705;DHT22;7952;48.396;12.806;2023-07-02T06:57:15;23.00;51.90
15705;DHT22;7952;48.396;12.806;2023-07-02T07:02:07;24.70;51.00
15705;DHT22;7952;48.396;12.806;2023-07-02T07:04:32;24.70;51.50
15705;DHT22;7952;48.396;12.806;2023-07-02T07:07:00;25.20;50.70
15705;DHT22;7952;48.396;12.806;2023-07-02T07:09:28;25.50;50.10
15705;DHT22;7952;48.396;12.806;2023-07-02T07:11:54;25.60;49.80
15705;DHT22;7952;48.396;12.806;2023-07-02T07:14:20;25.50;49.60
15705;DHT22;7952;48.396;12.806;2023-07-02T07:16:45;25.30;49.60
15705;DHT22;7952;48.396;12.806;2023-07-02T07:19:11;25.10;49.80
15705;DHT22;7952;48.396;12.806;2023-07-02T07:21:37;24.90;49.90
15705;DHT22;7952;48.396;12.806;2023-07-02T07:24:03;24.70;50.10
15705;DHT22;7952;48.396;12.806;2023-07-02T07:26:28;24.50;50.20
15705;DHT22;7952;48.396;12.806;2023-07-02T07:28:54;24.30;50.30
15705;DHT22;7952;48.396;12.806;2023-07-02T07:31:21;24.10;50.50
15705;DHT22;7952;48.396;12.806;2023-07-02T07:33:47;23.90;50.50
15705;DHT22;7952;48.396;12.806;2023-07-02T07:36:13;23.70;50.60
15705;DHT22;7952;48.396;12.806;2023-07-02T07:38:39;23.60;50.70
15705;DHT22;7952;48.396;12.806;2023-07-02T07:41:05;23.40;50.90
15705;DHT22;7952;48.396;12.806;2023-07-02T07:43:31;23.20;50.90
15705;DHT22;7952;48.396;12.806;2023-07-02T07:45:56;23.10;51.10
15705;DHT22;7952;48.396;12.806;2023-07-02T07:48:22;23.00;51.10
15705;DHT22;7952;48.396;12.806;2023-07-02T07:50:48;22.90;51.20
15705;DHT22;7952;48.396;12.806;2023-07-02T07:53:14;22.80;51.20
15705;DHT22;7952;48.396;12.806;2023-07-02T07:55:40;22.70;51.30
15705;DHT22;7952;48.396;12.806;2023-07-02T07:58:05;22.60;51.30
15705;DHT22;7952;48.396;12.806;2023-07-02T08:00:31;22.60;51.40
15705;DHT22;7952;48.396;12.806;2023-07-02T08:02:57;22.60;51.40
15705;DHT22;7952;48.396;12.806;2023-07-02T08:05:25;22.50;51.30
15705;DHT22;7952;48.396;12.806;2023-07-02T08:07:50;22.50;51.40
15705;DHT22;7952;48.396;12.806;2023-07-02T08:10:16;22.50;51.50
15705;DHT22;7952;48.396;12.806;2023-07-02T08:12:42;22.50;51.50
15705;DHT22;7952;48.396;12.806;2023-07-02T08:15:08;22.50;51.40
15705;DHT22;7952;48.396;12.806;2023-07-02T08:17:34;22.50;51.40
15705;DHT22;7952;48.396;12.806;2023-07-02T08:20:00;22.50;51.40
15705;DHT22;7952;48.396;12.806;2023-07-02T08:22:25;22.40;51.30
15705;DHT22;7952;48.396;12.806;2023-07-02T08:24:51;22.40;51.30
15705;DHT22;7952;48.396;12.806;2023-07-02T08:27:17;22.30;51.20
15705;DHT22;7952;48.396;12.806;2023-07-02T08:29:48;22.30;51.30
15705;DHT22;7952;48.396;12.806;2023-07-02T08:32:14;22.30;51.30
15705;DHT22;7952;48.396;12.806;2023-07-02T08:34:41;22.30;51.30
15705;DHT22;7952;48.396;12.806;2023-07-02T08:37:07;22.30;51.30
15705;DHT22;7952;48.396;12.806;2023-07-02T08:39:33;22.30;51.30
15705;DHT22;7952;48.396;12.806;2023-07-02T08:42:01;22.20;51.30
15705;DHT22;7952;48.396;12.806;2023-07-02T08:44:27;22.20;51.30
15705;DHT22;7952;48.396;12.806;2023-07-02T08:46:52;22.20;51.30
15705;DHT22;7952;48.396;12.806;2023-07-02T08:49:22;22.20;51.30
15705;DHT22;7952;48.396;12.806;2023-07-02T08:51:48;22.20;51.30
15705;DHT22;7952;48.396;12.806;2023-07-02T08:54:14;22.30;51.30
15705;DHT22;7952;48.396;12.806;2023-07-02T08:56:40;22.30;51.30
15705;DHT22;7952;48.396;12.806;2023-07-02T08:59:07;22.30;51.20
15705;DHT22;7952;48.396;12.806;2023-07-02T09:01:43;22.30;51.20
15705;DHT22;7952;48.396;12.806;2023-07-02T09:04:18;22.30;51.10
15705;DHT22;7952;48.396;12.806;2023-07-02T09:06:45;22.30;51.10
15705;DHT22;7952;48.396;12.806;2023-07-02T09:09:11;22.30;51.10
15705;DHT22;7952;48.396;12.806;2023-07-02T09:11:47;22.20;51.00
15705;DHT22;7952;48.396;12.806;2023-07-02T09:14:24;22.10;51.00
15705;DHT22;7952;48.396;12.806;2023-07-02T09:16:49;22.00;51.10
15705;DHT22;7952;48.396;12.806;2023-07-02T09:19:15;21.80;51.00
15705;DHT22;7952;48.396;12.806;2023-07-02T09:21:49;21.80;51.20
15705;DHT22;7952;48.396;12.806;2023-07-02T09:24:19;21.70;51.30
15705;DHT22;7952;48.396;12.806;2023-07-02T09:26:46;21.60;51.30
15705;DHT22;7952;48.396;12.806;2023-07-02T09:29:26;21.60;51.40
15705;DHT22;7952;48.396;12.806;2023-07-02T09:32:05;21.70;51.50
15705;DHT22;7952;48.396;12.806;2023-07-02T09:34:35;21.80;51.50
15705;DHT22;7952;48.396;12.806;2023-07-02T09:37:03;21.90;51.50
15705;DHT22;7952;48.396;12.806;2023-07-02T09:39:32;22.00;51.40
15705;DHT22;7952;48.396;12.806;2023-07-02T09:42:00;22.10;51.40
15705;DHT22;7952;48.396;12.806;2023-07-02T09:47:07;22.20;51.10
15705;DHT22;7952;48.396;12.806;2023-07-02T09:49:38;22.20;51.10
15705;DHT22;7952;48.396;12.806;2023-07-02T09:52:09;22.10;51.00
15705;DHT22;7952;48.396;12.806;2023-07-02T09:54:36;22.10;51.10
15705;DHT22;7952;48.396;12.806;2023-07-02T09:57:03;22.10;51.10
15705;DHT22;7952;48.396;12.806;2023-07-02T09:59:29;22.00;51.10
15705;DHT22;7952;48.396;12.806;2023-07-02T10:01:56;22.00;51.10
15705;DHT22;7952;48.396;12.806;2023-07-02T10:04:22;22.00;51.20
15705;DHT22;7952;48.396;12.806;2023-07-02T10:06:54;22.00;51.30
15705;DHT22;7952;48.396;12.806;2023-07-02T10:09:21;22.10;51.40
15705;DHT22;7952;48.396;12.806;2023-07-02T10:11:59;22.20;51.40
15705;DHT22;7952;48.396;12.806;2023-07-02T10:14:25;22.30;51.30
15705;DHT22;7952;48.396;12.806;2023-07-02T10:16:51;22.40;51.30
15705;DHT22;7952;48.396;12.806;2023-07-02T10:19:17;22.50;51.40
15705;DHT22;7952;48.396;12.806;2023-07-02T10:21:43;22.70;51.50
15705;DHT22;7952;48.396;12.806;2023-07-02T10:24:14;22.80;51.30
15705;DHT22;7952;48.396;12.806;2023-07-02T10:27:01;23.00;51.20
15705;DHT22;7952;48.396;12.806;2023-07-02T10:29:27;23.20;51.10
15705;DHT22;7952;48.396;12.806;2023-07-02T10:31:55;23.50;51.00
15705;DHT22;7952;48.396;12.806;2023-07-02T10:34:35;23.60;50.80
15705;DHT22;7952;48.396;12.806;2023-07-02T10:37:02;23.90;50.80
15705;DHT22;7952;48.396;12.806;2023-07-02T10:39:29;24.00;50.60
15705;DHT22;7952;48.396;12.806;2023-07-02T10:42:09;24.20;50.50
15705;DHT22;7952;48.396;12.806;2023-07-02T10:44:52;24.30;50.50
15705;DHT22;7952;48.396;12.806;2023-07-02T10:47:18;24.40;50.40
15705;DHT22;7952;48.396;12.806;2023-07-02T10:49:44;24.60;50.40
15705;DHT22;7952;48.396;12.806;2023-07-02T10:52:10;24.80;50.40
15705;DHT22;7952;48.396;12.806;2023-07-02T10:54:47;25.00;50.40
15705;DHT22;7952;48.396;12.806;2023-07-02T10:57:14;25.20;50.10
15705;DHT22;7952;48.396;12.806;2023-07-02T10:59:41;25.30;49.90
15705;DHT22;7952;48.396;12.806;2023-07-02T11:02:08;25.40;49.70
15705;DHT22;7952;48.396;12.806;2023-07-02T11:04:36;25.50;49.80
15705;DHT22;7952;48.396;12.806;2023-07-02T11:07:03;25.50;49.60
15705;DHT22;7952;48.396;12.806;2023-07-02T11:09:29;25.60;49.60
15705;DHT22;7952;48.396;12.806;2023-07-02T11:11:57;25.60;49.40
15705;DHT22;7952;48.396;12.806;2023-07-02T11:14:30;25.70;49.40
15705;DHT22;7952;48.396;12.806;2023-07-02T11:17:01;25.60;49.30
15705;DHT22;7952;48.396;12.806;2023-07-02T11:19:29;25.60;49.30
15705;DHT22;7952;48.396;12.806;2023-07-02T11:21:56;25.60;49.30
15705;DHT22;7952;48.396;12.806;2023-07-02T11:24:33;25.60;49.30
15705;DHT22;7952;48.396;12.806;2023-07-02T11:27:00;25.60;49.50
15705;DHT22;7952;48.396;12.806;2023-07-02T11:29:31;25.70;49.40
15705;DHT22;7952;48.396;12.806;2023-07-02T11:32:07;25.90;49.40
15705;DHT22;7952;48.396;12.806;2023-07-02T11:34:32;26.00;49.30
15705;DHT22;7952;48.396;12.806;2023-07-02T11:36:58;26.10;49.10
15705;DHT22;7952;48.396;12.806;2023-07-02T11:39:24;26.30;49.10
15705;DHT22;7952;48.396;12.806;2023-07-02T11:41:50;26.40;49.00
15705;DHT22;7952;48.396;12.806;2023-07-02T11:44:16;26.50;48.90
15705;DHT22;7952;48.396;12.806;2023-07-02T11:46:43;26.60;48.80
15705;DHT22;7952;48.396;12.806;2023-07-02T11:49:09;26.70;48.60
15705;DHT22;7952;48.396;12.806;2023-07-02T11:51:41;26.70;48.50
15705;DHT22;7952;48.396;12.806;2023-07-02T11:54:07;26.60;48.50
15705;DHT22;7952;48.396;12.806;2023-07-02T11:56:33;26.60;48.50
15705;DHT22;7952;48.396;12.806;2023-07-02T11:59:03;26.50;48.60
15705;DHT22;7952;48.396;12.806;2023-07-02T12:01:29;26.50;48.60
15705;DHT22;7952;48.396;12.806;2023-07-02T12:03:54;26.40;48.50
15705;DHT22;7952;48.396;12.806;2023-07-02T12:06:23;26.30;48.70
15705;DHT22;7952;48.396;12.806;2023-07-02T12:08:49;26.30;48.80
15705;DHT22;7952;48.396;12.806;2023-07-02T12:11:18;26.30;48.80
15705;DHT22;7952;48.396;12.806;2023-07-02T12:13:44;26.30;48.70
15705;DHT22;7952;48.396;12.806;2023-07-02T12:16:10;26.30;48.70
15705;DHT22;7952;48.396;12.806;2023-07-02T12:18:35;26.20;48.60
15705;DHT22;7952;48.396;12.806;2023-07-02T12:21:01;26.20;48.70
15705;DHT22;7952;48.396;12.806;2023-07-02T12:23:27;26.10;48.90
15705;DHT22;7952;48.396;12.806;2023-07-02T12:25:52;26.20;49.00
15705;DHT22;7952;48.396;12.806;2023-07-02T12:28:18;26.20;48.90
15705;DHT22;7952;48.396;12.806;2023-07-02T12:30:44;26.30;48.90
15705;DHT22;7952;48.396;12.806;2023-07-02T12:33:10;26.30;48.80
15705;DHT22;7952;48.396;12.806;2023-07-02T12:35:36;26.40;48.70
15705;DHT22;7952;48.396;12.806;2023-07-02T12:38:01;26.40;48.70
15705;DHT22;7952;48.396;12.806;2023-07-02T12:40:29;26.40;48.80
15705;DHT22;7952;48.396;12.806;2023-07-02T12:42:55;26.40;48.70
15705;DHT22;7952;48.396;12.806;2023-07-02T12:45:21;26.50;48.70
15705;DHT22;7952;48.396;12.806;2023-07-02T12:47:47;26.60;48.70
15705;DHT22;7952;48.396;12.806;2023-07-02T12:50:13;26.60;48.60
15705;DHT22;7952;48.396;12.806;2023-07-02T12:52:39;26.70;48.60
15705;DHT22;7952;48.396;12.806;2023-07-02T12:55:05;26.70;48.50
15705;DHT22;7952;48.396;12.806;2023-07-02T12:57:31;26.70;48.50
15705;DHT22;7952;48.396;12.806;2023-07-02T12:59:57;26.70;48.40
15705;DHT22;7952;48.396;12.806;2023-07-02T13:02:23;26.80;48.40
15705;DHT22;7952;48.396;12.806;2023-07-02T13:04:49;26.70;48.30
15705;DHT22;7952;48.396;12.806;2023-07-02T13:07:18;26.70;48.30
15705;DHT22;7952;48.396;12.806;2023-07-02T13:09:47;26.70;48.30
15705;DHT22;7952;48.396;12.806;2023-07-02T13:12:13;26.70;48.30
15705;DHT22;7952;48.396;12.806;2023-07-02T13:14:38;26.80;48.50
15705;DHT22;7952;48.396;12.806;2023-07-02T13:17:04;26.90;48.40
15705;DHT22;7952;48.396;12.806;2023-07-02T13:19:31;27.10;48.30
15705;DHT22;7952;48.396;12.806;2023-07-02T13:21:57;27.10;48.10
15705;DHT22;7952;48.396;12.806;2023-07-02T13:24:23;27.20;48.00
15705;DHT22;7952;48.396;12.806;2023-07-02T13:26:49;27.30;48.00
15705;DHT22;7952;48.396;12.806;2023-07-02T13:29:15;27.40;47.80
15705;DHT22;7952;48.396;12.806;2023-07-02T13:31:42;27.40;47.70
15705;DHT22;7952;48.396;12.806;2023-07-02T13:34:07;27.30;47.60
15705;DHT22;7952;48.396;12.806;2023-07-02T13:36:33;27.30;47.70
15705;DHT22;7952;48.396;12.806;2023-07-02T13:38:59;27.20;47.80
15705;DHT22;7952;48.396;12.806;2023-07-02T13:41:24;27.30;47.90
15705;DHT22;7952;48.396;12.806;2023-07-02T13:43:50;27.30;47.90
15705;DHT22;7952;48.396;12.806;2023-07-02T13:46:16;27.40;47.70
15705;DHT22;7952;48.396;12.806;2023-07-02T13:48:42;27.50;47.70
15705;DHT22;7952;48.396;12.806;2023-07-02T13:51:08;27.60;47.70
15705;DHT22;7952;48.396;12.806;2023-07-02T13:53:34;27.60;47.60
15705;DHT22;7952;48.396;12.806;2023-07-02T13:56:00;27.70;47.70
15705;DHT22;7952;48.396;12.806;2023-07-02T14:01:10;27.90;47.50
15705;DHT22;7952;48.396;12.806;2023-07-02T14:03:36;28.00;47.50
15705;DHT22;7952;48.396;12.806;2023-07-02T14:06:02;28.00;47.30
15705;DHT22;7952;48.396;12.806;2023-07-02T14:08:30;28.10;47.20
15705;DHT22;7952;48.396;12.806;2023-07-02T14:10:56;28.10;47.10
15705;DHT22;7952;48.396;12.806;2023-07-02T14:13:22;28.00;47.00
15705;DHT22;7952;48.396;12.806;2023-07-02T14:15:49;27.90;46.90
15705;DHT22;7952;48.396;12.806;2023-07-02T14:18:15;27.80;47.00
15705;DHT22;7952;48.396;12.806;2023-07-02T14:20:41;27.60;47.00
15705;DHT22;7952;48.396;12.806;2023-07-02T14:23:07;27.50;47.10
15705;DHT22;7952;48.396;12.806;2023-07-02T14:25:32;27.40;47.20
15705;DHT22;7952;48.396;12.806;2023-07-02T14:27:58;27.20;47.30
15705;DHT22;7952;48.396;12.806;2023-07-02T14:30:24;27.10;47.40
15705;DHT22;7952;48.396;12.806;2023-07-02T14:32:50;27.00;47.50
15705;DHT22;7952;48.396;12.806;2023-07-02T14:35:15;26.90;47.60
15705;DHT22;7952;48.396;12.806;2023-07-02T14:37:41;26.90;47.70
15705;DHT22;7952;48.396;12.806;2023-07-02T14:40:07;26.80;47.80
15705;DHT22;7952;48.396;12.806;2023-07-02T14:42:33;26.80;47.90
15705;DHT22;7952;48.396;12.806;2023-07-02T14:44:59;26.80;47.80
15705;DHT22;7952;48.396;12.806;2023-07-02T14:47:24;26.70;47.80
15705;DHT22;7952;48.396;12.806;2023-07-02T14:49:51;26.70;47.90
15705;DHT22;7952;48.396;12.806;2023-07-02T14:52:16;26.80;48.00
15705;DHT22;7952;48.396;12.806;2023-07-02T14:54:44;26.80;47.90
15705;DHT22;7952;48.396;12.806;2023-07-02T14:57:10;26.90;47.80
15705;DHT22;7952;48.396;12.806;2023-07-02T14:59:36;26.90;47.80
15705;DHT22;7952;48.396;12.806;2023-07-02T15:02:02;26.90;47.80
15705;DHT22;7952;48.396;12.806;2023-07-02T15:04:29;26.90;47.70
15705;DHT22;7952;48.396;12.806;2023-07-02T15:06:56;26.90;47.60
15705;DHT22;7952;48.396;12.806;2023-07-02T15:09:21;26.90;47.60
15705;DHT22;7952;48.396;12.806;2023-07-02T15:11:48;26.80;47.60
15705;DHT22;7952;48.396;12.806;2023-07-02T15:14:14;26.80;47.70
15705;DHT22;7952;48.396;12.806;2023-07-02T15:16:39;26.70;47.60
15705;DHT22;7952;48.396;12.806;2023-07-02T15:19:05;26.60;47.70
15705;DHT22;7952;48.396;12.806;2023-07-02T15:21:31;26.60;47.80
15705;DHT22;7952;48.396;12.806;2023-07-02T15:23:57;26.60;47.90
15705;DHT22;7952;48.396;12.806;2023-07-02T15:26:22;26.60;47.90
15705;DHT22;7952;48.396;12.806;2023-07-02T15:28:48;26.60;47.90
15705;DHT22;7952;48.396;12.806;2023-07-02T15:31:14;26.60;47.90
15705;DHT22;7952;48.396;12.806;2023-07-02T15:33:41;26.50;47.80
15705;DHT22;7952;48.396;12.806;2023-07-02T15:36:07;26.50;47.80